createdAt,value
2019-01-19T00:01:47.262Z,11.43
2019-01-19T00:04:49.781Z,16.70
2019-01-19T00:08:09.443Z,15.70
2019-01-19T00:11:04.869Z,13.40
2019-01-19T00:14:27.716Z,13.63
2019-01-19T00:17:56.508Z,14.53
2019-01-19T00:20:55.942Z,11.00
2019-01-19T00:24:04.934Z,12.40
2019-01-19T00:27:05.485Z,12.10
2019-01-19T00:29:49.615Z,12.00
2019-01-19T00:32:32.050Z,11.40
2019-01-19T00:35:21.986Z,11.17
2019-01-19T00:38:10.398Z,10.73
2019-01-19T00:41:14.862Z,10.33
2019-01-19T00:44:23.457Z,11.40
2019-01-19T00:47:12.223Z,10.30
2019-01-19T00:50:12.967Z,9.90
2019-01-19T00:53:00.275Z,11.13
2019-01-19T00:55:54.332Z,9.40
2019-01-19T00:58:57.169Z,10.50
2019-01-19T01:01:59.765Z,11.10
2019-01-19T01:04:54.466Z,11.10
2019-01-19T01:08:04.245Z,8.70
2019-01-19T01:11:27.075Z,9.10
2019-01-19T01:14:49.419Z,9.40
2019-01-19T01:18:01.823Z,10.03
2019-01-19T01:21:03.175Z,10.30
2019-01-19T01:24:05.084Z,10.60
2019-01-19T01:27:24.904Z,10.10
2019-01-19T01:30:15.524Z,10.80
2019-01-19T01:33:26.734Z,10.67
2019-01-19T01:36:32.085Z,10.40
2019-01-19T01:39:48.791Z,11.67
2019-01-19T01:42:46.009Z,10.97
2019-01-19T01:45:44.601Z,11.63
2019-01-19T01:48:52.832Z,11.17
2019-01-19T01:51:38.805Z,11.37
2019-01-19T01:54:34.797Z,10.70
2019-01-19T01:57:22.469Z,11.00
2019-01-19T02:00:42.613Z,10.73
2019-01-19T02:03:47.824Z,10.30
2019-01-19T02:07:07.294Z,11.00
2019-01-19T02:10:20.865Z,9.97
2019-01-19T02:13:03.126Z,12.43
2019-01-19T02:19:48.581Z,13.60
2019-01-19T02:22:44.171Z,10.80
2019-01-19T02:26:02.979Z,12.00
2019-01-19T02:29:08.496Z,10.97
2019-01-19T02:32:15.313Z,12.37
2019-01-19T02:35:29.338Z,11.20
2019-01-19T02:38:38.500Z,11.43
2019-01-19T02:41:48.792Z,12.70
2019-01-19T02:44:40.023Z,11.50
2019-01-19T02:48:09.778Z,11.13
2019-01-19T02:50:46.766Z,11.40
2019-01-19T02:53:51.985Z,10.87
2019-01-19T02:56:55.165Z,11.87
2019-01-19T03:00:27.244Z,10.80
2019-01-19T03:03:43.951Z,10.50
2019-01-19T03:06:27.062Z,10.60
2019-01-19T03:09:16.932Z,10.70
2019-01-19T03:12:30.906Z,11.30
2019-01-19T03:15:35.825Z,11.40
2019-01-19T03:18:49.394Z,10.60
2019-01-19T03:22:02.385Z,10.67
2019-01-19T03:25:18.813Z,9.70
2019-01-19T03:28:18.199Z,11.03
2019-01-19T03:31:23.192Z,10.07
2019-01-19T03:34:23.984Z,10.23
2019-01-19T03:37:31.994Z,10.80
2019-01-19T03:40:49.418Z,11.50
2019-01-19T03:43:49.842Z,11.70
2019-01-19T03:46:39.352Z,10.27
2019-01-19T03:49:49.842Z,11.20
2019-01-19T03:52:59.021Z,9.93
2019-01-19T03:56:08.598Z,10.27
2019-01-19T03:59:18.950Z,10.47
2019-01-19T04:02:39.283Z,10.17
2019-01-19T04:05:32.497Z,11.27
2019-01-19T04:08:30.211Z,10.57
2019-01-19T04:11:23.024Z,11.00
2019-01-19T04:14:35.738Z,9.90
2019-01-19T04:17:46.599Z,10.67
2019-01-19T04:20:56.361Z,10.47
2019-01-19T04:23:26.103Z,10.93
2019-01-19T04:26:26.153Z,14.90
2019-01-19T04:28:56.181Z,10.67
2019-01-19T04:31:26.032Z,10.53
2019-01-19T04:33:56.760Z,10.73
2019-01-19T04:36:26.924Z,10.33
2019-01-19T04:38:59.030Z,10.20
2019-01-19T04:41:31.163Z,11.23
2019-01-19T04:44:00.995Z,10.10
2019-01-19T04:46:30.995Z,11.90
2019-01-19T04:49:01.235Z,11.53
2019-01-19T04:51:31.283Z,11.20
2019-01-19T04:54:01.108Z,10.33
2019-01-19T04:56:31.259Z,10.50
2019-01-19T04:59:01.268Z,10.20
2019-01-19T05:01:31.509Z,10.87
2019-01-19T05:04:01.719Z,10.37
2019-01-19T05:06:31.574Z,11.00
2019-01-19T05:09:01.462Z,10.57
2019-01-19T05:11:31.727Z,10.10
2019-01-19T05:14:03.061Z,10.33
2019-01-19T05:16:33.348Z,10.83
2019-01-19T05:19:08.382Z,10.03
2019-01-19T05:21:39.005Z,9.93
2019-01-19T05:24:15.441Z,9.20
2019-01-19T05:26:46.244Z,10.57
2019-01-19T05:29:16.304Z,9.93
2019-01-19T05:31:46.559Z,11.00
2019-01-19T05:34:16.719Z,10.30
2019-01-19T05:36:46.956Z,9.63
2019-01-19T05:39:20.921Z,10.30
2019-01-19T05:41:51.724Z,10.00
2019-01-19T05:44:22.957Z,10.00
2019-01-19T05:46:59.200Z,10.27
2019-01-19T05:49:29.708Z,10.70
2019-01-19T05:51:59.618Z,10.03
2019-01-19T05:54:32.085Z,9.90
2019-01-19T05:57:04.556Z,11.13
2019-01-19T06:02:33.725Z,9.53
2019-01-19T06:05:10.664Z,11.03
2019-01-19T06:07:43.631Z,10.20
2019-01-19T06:10:18.244Z,11.23
2019-01-19T06:12:51.686Z,10.87
2019-01-19T06:15:23.401Z,10.30
2019-01-19T06:17:54.199Z,9.77
2019-01-19T06:20:24.470Z,10.17
2019-01-19T06:22:55.550Z,10.90
2019-01-19T06:25:26.632Z,10.10
2019-01-19T06:27:57.179Z,10.70
2019-01-19T06:30:30.331Z,10.73
2019-01-19T06:33:00.779Z,9.57
2019-01-19T06:35:31.332Z,10.23
2019-01-19T06:38:01.390Z,11.13
2019-01-19T06:40:31.400Z,11.03
2019-01-19T06:43:01.306Z,12.13
2019-01-19T06:45:31.253Z,13.60
2019-01-19T06:48:01.831Z,12.43
2019-01-19T06:50:36.015Z,11.10
2019-01-19T06:53:07.089Z,9.80
2019-01-19T06:55:48.715Z,11.00
2019-01-19T07:05:16.891Z,10.80
2019-01-19T07:07:46.363Z,10.43
2019-01-19T07:10:50.864Z,12.57
2019-01-19T07:13:21.695Z,11.13
2019-01-19T07:16:03.391Z,11.60
2019-01-19T07:18:35.184Z,12.03
2019-01-19T07:21:04.958Z,13.97
2019-01-19T07:23:40.764Z,13.83
2019-01-19T07:26:12.674Z,12.63
2019-01-19T07:28:42.881Z,13.73
2019-01-19T07:31:21.359Z,12.23
2019-01-19T07:33:55.237Z,12.77
2019-01-19T07:36:23.379Z,14.23
2019-01-19T07:38:55.761Z,15.67
2019-01-19T07:41:26.248Z,13.57
2019-01-19T07:43:55.877Z,13.33
2019-01-19T07:46:27.693Z,14.10
2019-01-19T07:48:57.109Z,15.10
2019-01-19T07:51:27.031Z,15.50
2019-01-19T07:53:57.201Z,17.10
2019-01-19T07:56:26.893Z,15.10
2019-01-19T07:58:56.948Z,15.90
2019-01-19T08:01:27.662Z,14.17
2019-01-19T08:03:57.237Z,13.30
2019-01-19T08:06:27.007Z,14.20
2019-01-19T08:08:57.143Z,12.97
2019-01-19T08:11:26.976Z,15.20
2019-01-19T08:13:56.594Z,15.73
2019-01-19T08:16:26.235Z,14.10
2019-01-19T08:19:01.680Z,15.97
2019-01-19T08:21:31.581Z,15.53
2019-01-19T08:24:01.242Z,14.40
2019-01-19T08:26:30.999Z,16.30
2019-01-19T08:29:00.785Z,16.60
2019-01-19T08:31:30.438Z,15.20
2019-01-19T08:33:59.866Z,15.20
2019-01-19T08:36:30.376Z,50.37
2019-01-19T08:39:00.776Z,35.93
2019-01-19T08:41:30.590Z,26.10
2019-01-19T08:44:02.947Z,18.43
2019-01-19T08:46:34.063Z,15.90
2019-01-19T08:49:04.264Z,17.63
2019-01-19T08:51:33.890Z,17.07
2019-01-19T08:54:05.294Z,17.23
2019-01-19T08:56:34.924Z,16.20
2019-01-19T08:59:05.320Z,14.83
2019-01-19T09:01:36.967Z,14.80
2019-01-19T09:04:06.835Z,15.37
2019-01-19T09:06:36.616Z,16.73
2019-01-19T09:09:08.828Z,18.07
2019-01-19T09:11:39.314Z,16.73
2019-01-19T09:14:09.448Z,23.70
2019-01-19T09:16:41.727Z,12.90
2019-01-19T09:19:14.456Z,13.13
2019-01-19T09:21:44.341Z,13.50
2019-01-19T09:24:33.701Z,12.90
2019-01-19T09:27:03.701Z,12.50
2019-01-19T09:29:33.725Z,14.40
2019-01-19T09:32:03.465Z,16.47
2019-01-19T09:34:34.116Z,13.17
2019-01-19T09:37:03.793Z,14.07
2019-01-19T09:39:34.122Z,21.20
2019-01-19T09:42:04.120Z,14.10
2019-01-19T09:44:33.705Z,12.97
2019-01-19T09:47:03.455Z,12.67
2019-01-19T09:49:33.469Z,13.40
2019-01-19T09:52:03.245Z,14.20
2019-01-19T09:54:34.134Z,15.83
2019-01-19T09:57:04.495Z,13.97
2019-01-19T09:59:34.460Z,13.43
2019-01-19T10:02:04.265Z,13.23
2019-01-19T10:04:34.901Z,15.07
2019-01-19T10:07:04.706Z,15.77
2019-01-19T10:09:34.297Z,13.90
2019-01-19T10:12:04.157Z,13.80
2019-01-19T10:14:33.704Z,13.60
2019-01-19T10:17:03.521Z,15.10
2019-01-19T10:19:33.258Z,13.43
2019-01-19T10:22:03.456Z,13.77
2019-01-19T10:24:33.192Z,87.73
2019-01-19T10:27:02.628Z,44.60
2019-01-19T10:29:32.099Z,29.93
2019-01-19T10:32:02.989Z,19.93
2019-01-19T10:34:32.785Z,18.00
2019-01-19T10:37:02.863Z,13.93
2019-01-19T10:39:32.553Z,16.73
2019-01-19T10:42:07.312Z,13.27
2019-01-19T10:44:37.511Z,14.03
2019-01-19T10:47:08.080Z,14.20
2019-01-19T10:49:38.167Z,13.73
2019-01-19T10:52:15.787Z,13.93
2019-01-19T10:54:45.634Z,13.27
2019-01-19T10:57:15.677Z,14.87
2019-01-19T10:59:48.302Z,12.30
2019-01-19T11:02:18.149Z,11.73
2019-01-19T11:04:48.019Z,13.43
2019-01-19T11:07:25.927Z,13.33
2019-01-19T11:09:57.131Z,12.43
2019-01-19T11:12:27.252Z,10.43
2019-01-19T11:14:57.306Z,10.80
2019-01-19T11:17:27.144Z,10.73
2019-01-19T11:19:58.095Z,9.97
2019-01-19T11:22:27.394Z,9.50
2019-01-19T11:24:56.713Z,10.73
2019-01-19T11:27:26.044Z,11.13
2019-01-19T11:29:59.757Z,11.23
2019-01-19T11:32:29.492Z,10.57
2019-01-19T11:34:59.033Z,10.33
2019-01-19T11:37:28.607Z,12.33
2019-01-19T11:39:58.480Z,14.87
2019-01-19T11:42:28.013Z,10.97
2019-01-19T11:44:57.492Z,12.10
2019-01-19T11:47:26.883Z,11.00
2019-01-19T11:49:56.933Z,12.33
2019-01-19T11:52:26.426Z,12.30
2019-01-19T11:55:00.087Z,15.17
2019-01-19T11:57:30.357Z,12.47
2019-01-19T12:00:36.964Z,12.93
2019-01-19T12:03:11.991Z,9.70
2019-01-19T12:06:19.120Z,10.90
2019-01-19T12:09:01.617Z,10.83
2019-01-19T12:11:32.571Z,10.80
2019-01-19T12:14:03.727Z,10.30
2019-01-19T12:16:34.248Z,11.83
2019-01-19T12:19:09.162Z,11.33
2019-01-19T12:21:48.854Z,11.80
2019-01-19T12:24:38.549Z,11.20
2019-01-19T12:28:16.580Z,10.73
2019-01-19T12:34:31.382Z,11.47
2019-01-19T12:37:03.780Z,11.30
2019-01-19T12:39:37.347Z,9.53
2019-01-19T12:42:22.502Z,11.17
2019-01-19T12:44:54.091Z,13.53
2019-01-19T12:50:44.123Z,16.00
2019-01-19T12:53:17.513Z,9.50
2019-01-19T12:56:07.935Z,10.30
2019-01-19T12:58:46.259Z,10.50
2019-01-19T13:01:16.997Z,9.60
2019-01-19T13:03:47.738Z,9.10
2019-01-19T13:07:11.874Z,10.60
2019-01-19T13:09:27.946Z,16.37
2019-01-19T13:12:30.973Z,16.07
2019-01-19T13:15:22.989Z,26.87
2019-01-19T13:18:47.585Z,15.40
2019-01-19T13:22:04.030Z,9.90
2019-01-19T13:25:11.615Z,9.77
2019-01-19T13:28:08.497Z,11.00
2019-01-19T13:31:43.465Z,10.60
2019-01-19T13:35:00.608Z,12.50
2019-01-19T13:38:06.840Z,11.27
2019-01-19T13:41:22.647Z,11.80
2019-01-19T13:44:46.695Z,10.43
2019-01-19T13:48:03.511Z,11.07
2019-01-19T13:51:14.251Z,11.33
2019-01-19T13:54:17.154Z,12.33
2019-01-19T13:57:39.942Z,12.10
2019-01-19T14:00:51.116Z,12.27
2019-01-19T14:03:54.173Z,13.60
2019-01-19T14:06:50.872Z,12.40
2019-01-19T14:10:16.526Z,10.67
2019-01-19T14:13:38.201Z,13.47
2019-01-19T14:16:58.739Z,11.70
2019-01-19T14:20:09.459Z,11.60
2019-01-19T14:23:15.378Z,11.03
2019-01-19T14:26:25.660Z,11.83
2019-01-19T14:29:32.166Z,12.43
2019-01-19T14:32:58.153Z,11.20
2019-01-19T14:36:26.629Z,10.97
2019-01-19T14:39:24.186Z,11.80
2019-01-19T14:42:23.639Z,12.03
2019-01-19T14:45:24.214Z,11.43
2019-01-19T14:48:16.118Z,11.60
2019-01-19T14:55:05.950Z,20.00
2019-01-19T14:58:38.083Z,15.00
2019-01-19T15:01:50.319Z,13.20
2019-01-19T15:04:55.027Z,28.90
2019-01-19T15:08:03.274Z,14.37
2019-01-19T15:11:11.490Z,13.33
2019-01-19T15:14:23.780Z,13.57
2019-01-19T15:17:52.939Z,11.80
2019-01-19T15:20:44.169Z,11.73
2019-01-19T15:23:50.300Z,13.37
2019-01-19T15:27:06.786Z,13.40
2019-01-19T15:30:06.350Z,13.00
2019-01-19T15:33:02.495Z,21.77
2019-01-19T15:36:22.027Z,17.77
2019-01-19T15:39:22.849Z,27.60
2019-01-19T15:42:33.429Z,28.13
2019-01-19T15:45:33.954Z,16.60
2019-01-19T15:48:39.195Z,14.00
2019-01-19T15:51:33.805Z,15.97
2019-01-19T15:54:40.059Z,17.17
2019-01-19T15:58:08.540Z,21.33
2019-01-19T16:01:32.803Z,23.70
2019-01-19T16:04:35.472Z,12.63
2019-01-19T16:08:29.232Z,13.30
2019-01-19T16:15:39.720Z,18.00
2019-01-19T16:19:05.910Z,15.53
2019-01-19T16:22:20.558Z,12.17
2019-01-19T16:25:54.300Z,13.33
2019-01-19T16:32:37.049Z,14.53
2019-01-19T16:35:41.658Z,17.20
2019-01-19T16:38:46.444Z,13.67
2019-01-19T16:41:43.846Z,13.60
2019-01-19T16:44:37.096Z,14.03
2019-01-19T16:47:53.945Z,12.67
2019-01-19T16:51:14.134Z,12.40
2019-01-19T16:54:33.413Z,12.73
2019-01-19T16:57:29.147Z,13.07
2019-01-19T17:00:41.592Z,12.73
2019-01-19T17:03:43.931Z,12.33
2019-01-19T17:06:54.592Z,11.80
2019-01-19T17:09:45.562Z,11.60
2019-01-19T17:13:02.114Z,26.27
2019-01-19T17:15:49.624Z,18.47
2019-01-19T17:18:33.656Z,17.30
2019-01-19T17:21:58.456Z,20.90
2019-01-19T17:25:11.366Z,20.37
2019-01-19T17:28:12.754Z,22.20
2019-01-19T17:31:38.988Z,33.53
2019-01-19T17:34:39.227Z,21.53
2019-01-19T17:37:31.651Z,18.20
2019-01-19T17:40:48.062Z,18.47
2019-01-19T17:43:25.921Z,20.13
2019-01-19T17:46:33.660Z,24.30
2019-01-19T17:49:40.392Z,25.13
2019-01-19T17:52:48.805Z,24.87
2019-01-19T17:56:23.766Z,25.00
2019-01-19T17:59:18.187Z,24.77
2019-01-19T18:02:59.473Z,30.17
2019-01-19T18:05:59.248Z,34.07
2019-01-19T18:09:21.024Z,32.70
2019-01-19T18:12:25.934Z,26.40
2019-01-19T18:15:31.609Z,30.07
2019-01-19T18:18:23.080Z,32.23
2019-01-19T18:21:15.903Z,30.53
2019-01-19T18:24:16.675Z,24.33
2019-01-19T18:27:49.824Z,24.30
2019-01-19T18:44:56.244Z,18.67
2019-01-19T18:47:54.305Z,15.30
2019-01-19T18:50:59.544Z,16.10
2019-01-19T18:54:24.041Z,19.10
2019-01-19T18:57:44.962Z,25.90
2019-01-19T19:00:43.151Z,23.30
2019-01-19T19:03:49.777Z,20.63
2019-01-19T19:06:56.684Z,26.40
2019-01-19T19:09:45.600Z,27.10
2019-01-19T19:13:01.729Z,26.03
2019-01-19T19:16:19.524Z,25.57
2019-01-19T19:19:19.757Z,27.63
2019-01-19T19:22:30.613Z,27.03
2019-01-19T19:25:48.165Z,28.00
2019-01-19T19:29:02.688Z,28.07
2019-01-19T19:32:14.013Z,33.13
2019-01-19T19:35:11.579Z,33.80
2019-01-19T19:38:00.647Z,28.90
2019-01-19T19:41:37.671Z,27.27
2019-01-19T19:45:05.534Z,26.27
2019-01-19T19:48:37.884Z,27.67
2019-01-19T19:51:29.974Z,24.27
2019-01-19T19:54:00.414Z,25.47
2019-01-19T19:56:28.448Z,23.70
2019-01-19T19:58:58.063Z,22.63
2019-01-19T20:01:28.297Z,24.17
2019-01-19T20:03:59.746Z,21.70
2019-01-19T20:06:29.999Z,23.53
2019-01-19T20:09:00.475Z,22.53
2019-01-19T20:11:38.273Z,21.60
2019-01-19T20:17:50.371Z,21.87
2019-01-19T20:20:20.526Z,24.00
2019-01-19T20:22:50.621Z,22.63
2019-01-19T20:25:20.649Z,22.57
2019-01-19T20:27:51.055Z,22.50
2019-01-19T20:30:21.220Z,24.90
2019-01-19T20:32:51.250Z,22.33
2019-01-19T20:35:21.181Z,21.93
2019-01-19T20:37:51.326Z,20.50
2019-01-19T20:40:24.487Z,20.17
2019-01-19T20:42:57.297Z,21.47
2019-01-19T20:45:27.356Z,21.70
2019-01-19T20:48:00.778Z,21.37
2019-01-19T20:50:31.452Z,21.83
2019-01-19T20:53:01.486Z,22.10
2019-01-19T20:55:31.922Z,26.30
2019-01-19T20:58:06.564Z,27.53
2019-01-19T21:00:36.379Z,27.17
2019-01-19T21:03:06.374Z,26.70
2019-01-19T21:05:36.151Z,26.40
2019-01-19T21:08:06.100Z,22.90
2019-01-19T21:10:36.138Z,24.00
2019-01-19T21:13:08.940Z,25.50
2019-01-19T21:15:39.390Z,26.97
2019-01-19T21:18:11.205Z,24.17
2019-01-19T21:20:41.595Z,24.83
2019-01-19T21:23:11.865Z,24.17
2019-01-19T21:25:41.670Z,22.70
2019-01-19T21:28:12.223Z,22.87
2019-01-19T21:30:42.490Z,23.37
2019-01-19T21:33:13.032Z,24.90
2019-01-19T21:35:45.698Z,23.90
2019-01-19T21:38:17.427Z,22.73
2019-01-19T21:40:48.063Z,23.40
2019-01-19T21:43:19.549Z,23.07
2019-01-19T21:45:49.596Z,22.80
2019-01-19T21:48:19.381Z,23.87
2019-01-19T21:50:49.281Z,23.83
2019-01-19T21:53:25.338Z,24.10
2019-01-19T21:55:54.905Z,22.73
2019-01-19T21:58:24.589Z,23.80
2019-01-19T22:00:54.336Z,22.90
2019-01-19T22:03:24.279Z,22.10
2019-01-19T22:05:54.060Z,23.30
2019-01-19T22:17:16.373Z,24.90
2019-01-19T22:24:20.206Z,28.17
2019-01-19T22:26:52.516Z,26.73
2019-01-19T22:29:22.755Z,26.83
2019-01-19T22:31:53.349Z,24.97
2019-01-19T22:34:26.354Z,23.30
2019-01-19T22:36:56.273Z,22.97
2019-01-19T22:39:29.563Z,25.97
2019-01-19T22:42:00.482Z,23.60
2019-01-19T22:44:31.192Z,23.97
2019-01-19T22:47:01.018Z,20.97
2019-01-19T22:49:30.470Z,24.50
2019-01-19T22:52:00.725Z,28.40
2019-01-19T22:54:30.761Z,31.90
2019-01-19T22:57:02.902Z,29.60
2019-01-19T22:59:38.042Z,35.67
2019-01-19T23:02:11.806Z,30.77
2019-01-19T23:04:41.877Z,35.93
2019-01-19T23:07:12.246Z,29.70
2019-01-19T23:09:42.118Z,33.40
2019-01-19T23:12:15.061Z,32.23
2019-01-19T23:14:48.663Z,28.17
2019-01-19T23:17:18.592Z,35.13
2019-01-19T23:19:49.794Z,42.77
2019-01-19T23:22:25.255Z,35.57
2019-01-19T23:24:55.655Z,32.27
2019-01-19T23:27:26.715Z,26.23
2019-01-19T23:29:56.530Z,30.93
2019-01-19T23:32:28.219Z,32.50
2019-01-19T23:34:58.180Z,29.70
2019-01-19T23:37:28.157Z,31.87
2019-01-19T23:39:58.865Z,29.23
2019-01-19T23:42:31.975Z,28.60
2019-01-19T23:45:02.046Z,27.83
2019-01-19T23:47:31.807Z,28.33
2019-01-19T23:50:01.957Z,33.73
2019-01-19T23:52:31.755Z,28.80
2019-01-19T23:55:01.697Z,29.93
2019-01-19T23:57:31.427Z,26.53
